Time;durP1;ratioP1;P1;durP2;ratioP2;P2;SDS_P1;SDS_P2;PMS_P1;PMS_P2;Temp;Humidity;BMP_temperature;BMP_pressure;BME280_temperature;BME280_humidity;BME280_pressure;Samples;Min_cycle;Max_cycle;Signal;HPM_P1;HPM_P2
2023/08/24 00:01:33;;;;;;;;;;;20.10;99.90;;;;;;6702841;88;20128;-77
2023/08/24 00:11:34;;;;;;;;;;;20.00;99.90;;;;;;6698548;88;20988;-77
2023/08/24 00:21:34;;;;;;;;;;;19.60;99.90;;;;;;6705373;88;20139;-77
2023/08/24 00:31:34;;;;;;;;;;;19.40;99.90;;;;;;6707063;88;20547;-77
2023/08/24 00:41:35;;;;;;;;;;;19.50;99.90;;;;;;6703637;88;20073;-77
2023/08/24 00:51:35;;;;;;;;;;;19.30;99.90;;;;;;6708469;88;20519;-78
2023/08/24 01:01:37;;;;;;;;;;;19.00;99.90;;;;;;6715901;88;20077;-78
2023/08/24 01:11:42;;;;;;;;;;;18.80;99.90;;;;;;6713837;88;20055;-77
2023/08/24 01:21:43;;;;;;;;;;;18.70;99.90;;;;;;6711742;88;20055;-78
2023/08/24 01:31:43;;;;;;;;;;;18.70;99.90;;;;;;6677724;78;20075;-75
2023/08/24 01:41:46;;;;;;;;;;;18.70;99.90;;;;;;6650697;89;20071;-75
2023/08/24 01:51:46;;;;;;;;;;;18.60;99.90;;;;;;6648406;89;20624;-76
2023/08/24 02:01:47;;;;;;;;;;;18.60;99.90;;;;;;6650192;89;20133;-76
2023/08/24 02:11:47;;;;;;;;;;;18.50;99.90;;;;;;6652903;89;20078;-76
2023/08/24 02:21:48;;;;;;;;;;;18.50;99.90;;;;;;6648669;89;20058;-77
2023/08/24 02:31:51;;;;;;;;;;;18.40;99.90;;;;;;6663538;89;20118;-77
2023/08/24 02:41:52;;;;;;;;;;;18.60;99.90;;;;;;6669519;88;20072;-76
2023/08/24 02:51:53;;;;;;;;;;;18.80;99.90;;;;;;6672157;89;20152;-76
2023/08/24 03:01:53;;;;;;;;;;;18.80;99.90;;;;;;6666941;89;20153;-76
2023/08/24 03:11:53;;;;;;;;;;;18.90;99.90;;;;;;6667127;89;20079;-76
2023/08/24 03:21:54;;;;;;;;;;;19.20;99.90;;;;;;6669472;89;20068;-75
2023/08/24 03:31:54;;;;;;;;;;;19.20;99.90;;;;;;6664494;89;20065;-76
2023/08/24 03:41:55;;;;;;;;;;;19.30;99.90;;;;;;6663915;89;20085;-76
2023/08/24 03:51:55;;;;;;;;;;;19.20;99.90;;;;;;6665429;89;20192;-76
2023/08/24 04:01:59;;;;;;;;;;;19.20;99.90;;;;;;6667307;88;20173;-77
2023/08/24 04:11:59;;;;;;;;;;;19.20;99.90;;;;;;6673620;88;20110;-76
2023/08/24 04:22:00;;;;;;;;;;;19.30;99.90;;;;;;6678862;89;20104;-77
2023/08/24 04:32:00;;;;;;;;;;;19.30;99.90;;;;;;6674791;89;20157;-76
2023/08/24 04:42:02;;;;;;;;;;;19.30;99.90;;;;;;6671326;88;20081;-77
2023/08/24 04:52:03;;;;;;;;;;;19.20;99.90;;;;;;6670730;88;20072;-78
2023/08/24 05:02:03;;;;;;;;;;;18.90;99.90;;;;;;6669461;89;20099;-76
2023/08/24 05:12:04;;;;;;;;;;;18.60;99.90;;;;;;6668224;89;20065;-76
2023/08/24 05:22:04;;;;;;;;;;;18.20;99.90;;;;;;6668675;89;20068;-77
2023/08/24 05:32:05;;;;;;;;;;;18.10;99.90;;;;;;6669627;89;20185;-76
2023/08/24 05:42:06;;;;;;;;;;;18.30;99.90;;;;;;6660529;89;20096;-75
2023/08/24 05:52:06;;;;;;;;;;;18.30;99.90;;;;;;6666922;89;20085;-75
2023/08/24 06:02:06;;;;;;;;;;;18.40;99.90;;;;;;6668413;89;20194;-77
2023/08/24 06:12:07;;;;;;;;;;;18.50;99.90;;;;;;6666541;89;20073;-76
2023/08/24 06:22:07;;;;;;;;;;;18.50;99.90;;;;;;6665152;88;20227;-76
2023/08/24 06:32:08;;;;;;;;;;;18.70;99.90;;;;;;6666538;89;20101;-76
2023/08/24 06:42:08;;;;;;;;;;;19.00;99.90;;;;;;6665055;89;20137;-76
2023/08/24 06:52:09;;;;;;;;;;;19.30;99.90;;;;;;6664224;89;20095;-76
2023/08/24 07:02:09;;;;;;;;;;;20.00;99.90;;;;;;6664678;89;20528;-76
2023/08/24 07:12:10;;;;;;;;;;;20.60;99.90;;;;;;6664009;89;20097;-76
2023/08/24 07:22:11;;;;;;;;;;;20.80;99.90;;;;;;6671691;89;20616;-76
2023/08/24 07:42:54;;;;;;;;;;;21.70;99.90;;;;;;6710638;88;20077;-79
2023/08/24 07:52:55;;;;;;;;;;;22.30;99.90;;;;;;6710530;88;20142;-80
2023/08/24 08:02:56;;;;;;;;;;;22.60;99.90;;;;;;6710585;88;20079;-80
2023/08/24 08:12:56;;;;;;;;;;;23.30;99.90;;;;;;6708460;88;20195;-79
2023/08/24 08:22:57;;;;;;;;;;;23.40;99.90;;;;;;6713745;88;20064;-79
2023/08/24 08:32:57;;;;;;;;;;;23.80;99.90;;;;;;6712751;88;20063;-78
2023/08/24 08:42:58;;;;;;;;;;;24.20;99.90;;;;;;6714764;88;20055;-77
2023/08/24 08:52:58;;;;;;;;;;;25.10;99.90;;;;;;6706149;88;20214;-77
2023/08/24 09:02:59;;;;;;;;;;;25.50;99.90;;;;;;6700522;88;20581;-78
2023/08/24 09:13:00;;;;;;;;;;;26.20;99.90;;;;;;6709625;88;20088;-77
2023/08/24 09:23:00;;;;;;;;;;;26.80;99.90;;;;;;6709778;88;20104;-77
2023/08/24 09:33:02;;;;;;;;;;;26.80;99.90;;;;;;6708423;88;20118;-77
2023/08/24 09:43:04;;;;;;;;;;;27.00;99.90;;;;;;6700872;88;20092;-76
2023/08/24 09:53:05;;;;;;;;;;;27.40;99.90;;;;;;6702973;88;20056;-77
2023/08/24 10:03:06;;;;;;;;;;;27.60;99.90;;;;;;6706198;88;20084;-77
2023/08/24 10:13:10;;;;;;;;;;;27.80;99.90;;;;;;6698951;88;20044;-77
2023/08/24 10:23:12;;;;;;;;;;;27.70;99.90;;;;;;6705789;88;20171;-77
2023/08/24 10:33:13;;;;;;;;;;;27.20;99.90;;;;;;6704402;88;20048;-76
2023/08/24 10:43:14;;;;;;;;;;;27.50;99.90;;;;;;6703599;88;20549;-77
2023/08/24 10:53:34;;;;;;;;;;;27.50;99.90;;;;;;6706308;88;20081;-77
2023/08/24 11:03:35;;;;;;;;;;;27.40;99.90;;;;;;6703951;88;20101;-78
2023/08/24 11:13:35;;;;;;;;;;;28.00;99.90;;;;;;6705428;88;20063;-77
2023/08/24 11:23:36;;;;;;;;;;;27.50;99.90;;;;;;6706838;88;20056;-77
2023/08/24 11:33:36;;;;;;;;;;;27.70;99.90;;;;;;6702638;88;20144;-76
2023/08/24 11:43:37;;;;;;;;;;;27.80;99.90;;;;;;6705098;88;20090;-78
2023/08/24 11:53:44;;;;;;;;;;;28.30;99.90;;;;;;6708402;88;20074;-79
2023/08/24 12:03:45;;;;;;;;;;;27.70;99.90;;;;;;6702135;88;20072;-78
2023/08/24 12:13:46;;;;;;;;;;;28.00;99.90;;;;;;6709855;88;20063;-78
2023/08/24 12:23:57;;;;;;;;;;;27.70;99.90;;;;;;6706052;88;20084;-78
2023/08/24 12:34:04;;;;;;;;;;;27.40;99.90;;;;;;6716735;88;20567;-78
2023/08/24 12:44:05;;;;;;;;;;;27.20;99.90;;;;;;6709701;88;20539;-79
2023/08/24 12:54:05;;;;;;;;;;;26.70;99.90;;;;;;6713662;88;20076;-80
2023/08/24 13:04:06;;;;;;;;;;;26.20;99.90;;;;;;6707233;88;20104;-78
2023/08/24 13:14:06;;;;;;;;;;;25.20;99.90;;;;;;6706754;88;20398;-79
2023/08/24 13:24:07;;;;;;;;;;;24.80;99.90;;;;;;6716875;88;20074;-79
2023/08/24 13:34:08;;;;;;;;;;;24.40;99.90;;;;;;6721195;78;20070;-77
2023/08/24 13:44:09;;;;;;;;;;;24.10;99.90;;;;;;6714197;88;20531;-78
2023/08/24 13:54:16;;;;;;;;;;;23.70;99.90;;;;;;6731762;88;20072;-79
2023/08/24 14:04:17;;;;;;;;;;;23.40;99.90;;;;;;6720516;88;20048;-78
2023/08/24 14:14:17;;;;;;;;;;;23.50;99.90;;;;;;6710855;88;20503;-77
2023/08/24 14:24:18;;;;;;;;;;;23.40;99.90;;;;;;6716119;88;20051;-78
2023/08/24 14:34:18;;;;;;;;;;;23.20;99.90;;;;;;6725114;88;20497;-79
2023/08/24 14:44:20;;;;;;;;;;;23.20;99.90;;;;;;6724124;88;20109;-78
2023/08/24 14:54:20;;;;;;;;;;;23.10;99.90;;;;;;6721907;88;20107;-78
2023/08/24 15:04:20;;;;;;;;;;;23.10;99.90;;;;;;6718029;88;20071;-79
2023/08/24 15:14:21;;;;;;;;;;;23.00;99.90;;;;;;6718831;88;20186;-78
2023/08/24 15:24:21;;;;;;;;;;;22.80;99.90;;;;;;6726959;88;20380;-80
2023/08/24 15:34:22;;;;;;;;;;;22.50;99.90;;;;;;6722500;88;20609;-79
2023/08/24 15:44:22;;;;;;;;;;;22.20;99.90;;;;;;6722178;88;20162;-78
2023/08/24 15:54:24;;;;;;;;;;;21.80;99.90;;;;;;6722969;88;20080;-78
2023/08/24 16:04:25;;;;;;;;;;;21.50;99.90;;;;;;6715810;88;20055;-77
2023/08/24 16:14:25;;;;;;;;;;;21.00;99.90;;;;;;6717702;88;20202;-77
2023/08/24 16:24:26;;;;;;;;;;;20.70;99.90;;;;;;6717633;88;20504;-77
2023/08/24 16:34:26;;;;;;;;;;;20.70;99.90;;;;;;6720977;88;20067;-78
2023/08/24 16:44:27;;;;;;;;;;;20.70;99.90;;;;;;6720139;88;20064;-77
2023/08/24 16:54:27;;;;;;;;;;;20.70;99.90;;;;;;6721941;88;20092;-77
2023/08/24 17:04:28;;;;;;;;;;;20.60;99.90;;;;;;6718408;88;20055;-77
2023/08/24 17:14:28;;;;;;;;;;;20.70;99.90;;;;;;6716665;88;20067;-77
2023/08/24 17:24:29;;;;;;;;;;;20.70;99.90;;;;;;6726541;88;20063;-76
2023/08/24 17:34:30;;;;;;;;;;;20.70;99.90;;;;;;6713219;88;20083;-77
2023/08/24 17:44:30;;;;;;;;;;;20.60;99.90;;;;;;6720595;88;20050;-77
2023/08/24 17:54:31;;;;;;;;;;;20.60;99.90;;;;;;6719280;88;20069;-78
2023/08/24 18:04:31;;;;;;;;;;;20.60;99.90;;;;;;6712876;88;20217;-77
2023/08/24 18:14:32;;;;;;;;;;;20.60;99.90;;;;;;6722928;88;20542;-77
2023/08/24 18:24:32;;;;;;;;;;;20.70;99.90;;;;;;6714532;88;20109;-77
2023/08/24 18:34:33;;;;;;;;;;;20.70;99.90;;;;;;6716276;88;20105;-76
2023/08/24 18:44:33;;;;;;;;;;;20.70;99.90;;;;;;6711325;88;20186;-76
2023/08/24 18:54:34;;;;;;;;;;;20.60;99.90;;;;;;6711830;88;20245;-76
2023/08/24 19:04:36;;;;;;;;;;;20.60;99.90;;;;;;6710695;88;20077;-75
2023/08/24 19:14:36;;;;;;;;;;;20.60;99.90;;;;;;6710018;88;20084;-76
2023/08/24 19:24:37;;;;;;;;;;;20.50;99.90;;;;;;6710341;88;20207;-75
2023/08/24 19:34:37;;;;;;;;;;;20.30;99.90;;;;;;6708237;77;20106;-77
2023/08/24 19:44:37;;;;;;;;;;;20.20;99.90;;;;;;6709376;88;20086;-77
2023/08/24 19:54:39;;;;;;;;;;;20.20;99.90;;;;;;6695728;88;20519;-77
2023/08/24 20:04:40;;;;;;;;;;;20.10;99.90;;;;;;6706201;88;20089;-77
2023/08/24 20:14:40;;;;;;;;;;;20.00;99.90;;;;;;6700095;88;20064;-76
2023/08/24 20:24:42;;;;;;;;;;;19.90;99.90;;;;;;6699879;88;20569;-76
2023/08/24 20:34:42;;;;;;;;;;;19.90;99.90;;;;;;6711879;88;20070;-78
2023/08/24 20:44:43;;;;;;;;;;;19.70;99.90;;;;;;6708171;88;20066;-77
2023/08/24 20:54:45;;;;;;;;;;;19.70;99.90;;;;;;6705179;88;20488;-77
2023/08/24 21:04:47;;;;;;;;;;;19.50;99.90;;;;;;6716756;88;20156;-78
2023/08/24 21:14:47;;;;;;;;;;;19.40;99.90;;;;;;6698290;88;20150;-77
2023/08/24 21:24:48;;;;;;;;;;;19.10;99.90;;;;;;6700040;88;20111;-76
2023/08/24 21:34:48;;;;;;;;;;;19.00;99.90;;;;;;6710404;88;20191;-76
2023/08/24 21:44:49;;;;;;;;;;;18.90;99.90;;;;;;6698343;88;20104;-76
2023/08/24 21:54:49;;;;;;;;;;;18.90;99.90;;;;;;6699643;88;20068;-76
2023/08/24 22:04:50;;;;;;;;;;;18.90;99.90;;;;;;6691347;88;20060;-76
2023/08/24 22:14:50;;;;;;;;;;;18.90;99.90;;;;;;6698825;88;20129;-77
2023/08/24 22:24:51;;;;;;;;;;;18.80;99.90;;;;;;6711551;88;20500;-77
2023/08/24 22:34:51;;;;;;;;;;;18.90;99.90;;;;;;6716712;88;20114;-77
2023/08/24 22:44:52;;;;;;;;;;;19.00;99.90;;;;;;6717375;88;20070;-77
2023/08/24 22:54:53;;;;;;;;;;;19.10;99.90;;;;;;6716398;88;20070;-77
2023/08/24 23:04:54;;;;;;;;;;;19.10;99.90;;;;;;6712888;88;20259;-77
2023/08/24 23:14:54;;;;;;;;;;;18.90;99.90;;;;;;6719112;88;20066;-77
2023/08/24 23:24:55;;;;;;;;;;;18.80;99.90;;;;;;6715005;88;20104;-77
2023/08/24 23:34:56;;;;;;;;;;;18.70;99.90;;;;;;6708342;88;20920;-76
2023/08/24 23:44:56;;;;;;;;;;;18.60;99.90;;;;;;6697766;88;20067;-77
2023/08/24 23:55:00;;;;;;;;;;;18.40;99.90;;;;;;6701280;88;20062;-77
